Time;durP1;ratioP1;P1;durP2;ratioP2;P2;SDS_P1;SDS_P2;PMS_P1;PMS_P2;Temp;Humidity;BMP_temperature;BMP_pressure;BME280_temperature;BME280_humidity;BME280_pressure;Samples;Min_cycle;Max_cycle;Signal;HPM_P1;HPM_P2
2023/11/04 00:01:44;;;;;;;4.50;1.65;;;;;;;;;;5112873;28;20015;-67
2023/11/04 00:04:10;;;;;;;3.00;1.10;;;;;;;;;;5112783;28;20406;-67
2023/11/04 00:06:36;;;;;;;2.92;1.35;;;;;;;;;;5113338;28;20098;-68
2023/11/04 00:09:02;;;;;;;4.50;1.38;;;;;;;;;;5113249;28;20034;-67
2023/11/04 00:11:28;;;;;;;5.25;1.55;;;;;;;;;;5113879;28;20020;-67
2023/11/04 00:13:54;;;;;;;5.10;1.52;;;;;;;;;;5112801;28;20059;-67
2023/11/04 00:16:20;;;;;;;4.45;1.60;;;;;;;;;;5113657;28;20044;-67
2023/11/04 00:18:46;;;;;;;2.80;1.48;;;;;;;;;;5112548;28;20059;-67
2023/11/04 00:21:12;;;;;;;9.05;1.70;;;;;;;;;;5112742;28;20018;-67
2023/11/04 00:23:38;;;;;;;3.63;1.70;;;;;;;;;;5112400;28;20467;-67
2023/11/04 00:26:05;;;;;;;4.53;1.65;;;;;;;;;;5112941;28;20043;-67
2023/11/04 00:28:31;;;;;;;5.82;1.55;;;;;;;;;;5112750;28;20027;-67
2023/11/04 00:30:57;;;;;;;3.00;1.48;;;;;;;;;;5112402;28;20096;-67
2023/11/04 00:33:24;;;;;;;2.72;1.20;;;;;;;;;;5094346;28;20364;-67
2023/11/04 00:35:50;;;;;;;4.53;1.50;;;;;;;;;;5112717;28;20106;-67
2023/11/04 00:38:16;;;;;;;3.05;1.48;;;;;;;;;;5106590;28;20115;-67
2023/11/04 00:40:42;;;;;;;4.13;1.65;;;;;;;;;;5112151;28;20026;-67
2023/11/04 00:43:08;;;;;;;2.55;1.35;;;;;;;;;;5112969;28;20062;-67
2023/11/04 00:45:34;;;;;;;4.60;1.40;;;;;;;;;;5107464;28;20024;-68
2023/11/04 00:48:00;;;;;;;2.97;1.40;;;;;;;;;;5112912;28;20026;-67
2023/11/04 00:50:27;;;;;;;4.10;1.38;;;;;;;;;;5113144;28;20016;-67
2023/11/04 00:52:53;;;;;;;3.60;1.20;;;;;;;;;;5112125;28;20024;-67
2023/11/04 00:55:19;;;;;;;7.28;1.60;;;;;;;;;;5112113;28;20027;-68
2023/11/04 00:57:45;;;;;;;2.35;1.40;;;;;;;;;;5111785;28;20016;-68
2023/11/04 01:00:12;;;;;;;3.17;1.30;;;;;;;;;;5113050;28;20086;-67
2023/11/04 01:02:38;;;;;;;3.30;1.45;;;;;;;;;;5108368;28;20031;-68
2023/11/04 01:05:04;;;;;;;3.67;1.67;;;;;;;;;;5112748;28;20015;-67
2023/11/04 01:07:30;;;;;;;3.15;1.63;;;;;;;;;;5112932;28;20027;-67
2023/11/04 01:09:56;;;;;;;5.88;1.70;;;;;;;;;;5111803;28;20012;-67
2023/11/04 01:12:22;;;;;;;6.10;1.88;;;;;;;;;;5111354;28;20464;-67
2023/11/04 01:14:48;;;;;;;2.55;1.33;;;;;;;;;;5110839;28;20027;-67
2023/11/04 01:17:14;;;;;;;2.90;1.50;;;;;;;;;;5112268;28;20391;-67
2023/11/04 01:19:40;;;;;;;4.57;2.13;;;;;;;;;;5098218;28;20016;-67
2023/11/04 01:22:06;;;;;;;2.85;2.17;;;;;;;;;;5112797;28;20035;-67
2023/11/04 01:24:32;;;;;;;9.98;2.65;;;;;;;;;;5111755;28;20023;-68
2023/11/04 01:26:58;;;;;;;6.35;3.42;;;;;;;;;;5112006;28;20024;-67
2023/11/04 01:29:24;;;;;;;5.40;3.35;;;;;;;;;;5110876;28;20142;-67
2023/11/04 01:31:50;;;;;;;12.52;3.65;;;;;;;;;;5111232;28;20119;-67
2023/11/04 01:34:16;;;;;;;6.68;4.00;;;;;;;;;;5106258;28;20091;-67
2023/11/04 01:36:42;;;;;;;7.25;3.15;;;;;;;;;;5111560;28;20020;-67
2023/11/04 01:39:10;;;;;;;6.93;3.50;;;;;;;;;;5112044;28;20019;-67
2023/11/04 01:41:36;;;;;;;8.48;3.25;;;;;;;;;;5089289;28;20012;-68
2023/11/04 01:44:02;;;;;;;6.03;3.50;;;;;;;;;;5093296;28;20020;-67
2023/11/04 01:46:28;;;;;;;6.95;3.08;;;;;;;;;;5111653;28;20026;-67
2023/11/04 01:48:54;;;;;;;6.07;3.75;;;;;;;;;;5093108;28;20039;-67
2023/11/04 01:51:21;;;;;;;6.15;3.92;;;;;;;;;;5112342;28;20456;-67
2023/11/04 01:53:51;;;;;;;6.28;3.75;;;;;;;;;;5110844;28;20103;-67
2023/11/04 01:56:19;;;;;;;6.80;3.65;;;;;;;;;;5112316;28;20073;-67
2023/11/04 01:58:46;;;;;;;5.50;3.60;;;;;;;;;;5104083;28;20077;-67
2023/11/04 02:01:13;;;;;;;6.05;3.53;;;;;;;;;;5111925;28;20488;-67
2023/11/04 02:03:39;;;;;;;4.85;3.33;;;;;;;;;;5110843;28;20084;-67
2023/11/04 02:06:06;;;;;;;6.70;3.25;;;;;;;;;;5112259;28;20359;-67
2023/11/04 02:08:34;;;;;;;6.65;3.25;;;;;;;;;;5111476;28;20026;-67
2023/11/04 02:11:00;;;;;;;3.55;2.58;;;;;;;;;;5112081;28;20012;-67
2023/11/04 02:13:26;;;;;;;5.18;2.58;;;;;;;;;;5111462;28;20019;-67
2023/11/04 02:15:52;;;;;;;5.05;2.88;;;;;;;;;;5109133;28;20069;-68
2023/11/04 02:18:18;;;;;;;3.92;2.25;;;;;;;;;;5130123;28;20019;-67
2023/11/04 02:20:49;;;;;;;4.80;2.00;;;;;;;;;;5131466;28;20007;-67
2023/11/04 02:23:15;;;;;;;4.80;2.00;;;;;;;;;;5132142;28;20393;-67
2023/11/04 02:25:40;;;;;;;5.80;2.65;;;;;;;;;;5134613;27;20019;-67
2023/11/04 02:28:07;;;;;;;5.30;2.17;;;;;;;;;;5137046;27;20011;-67
2023/11/04 02:30:33;;;;;;;6.20;2.47;;;;;;;;;;5136393;27;20068;-67
2023/11/04 02:32:59;;;;;;;5.63;2.35;;;;;;;;;;5135296;27;20405;-67
2023/11/04 02:35:25;;;;;;;4.80;2.30;;;;;;;;;;5129591;27;20027;-67
2023/11/04 02:37:53;;;;;;;7.13;2.22;;;;;;;;;;5135652;27;20019;-67
2023/11/04 02:40:20;;;;;;;4.13;1.80;;;;;;;;;;5136445;27;20503;-67
2023/11/04 02:42:46;;;;;;;2.45;2.10;;;;;;;;;;5135566;27;20034;-67
2023/11/04 02:45:12;;;;;;;3.75;2.70;;;;;;;;;;5136254;27;20019;-67
2023/11/04 02:47:38;;;;;;;3.33;2.40;;;;;;;;;;5134846;27;20428;-67
2023/11/04 02:50:04;;;;;;;3.95;2.10;;;;;;;;;;5129638;27;20019;-67
2023/11/04 02:52:30;;;;;;;2.92;2.28;;;;;;;;;;5133194;27;20371;-67
2023/11/04 02:54:56;;;;;;;6.53;2.22;;;;;;;;;;5135191;27;20030;-67
2023/11/04 02:57:22;;;;;;;3.13;2.00;;;;;;;;;;5136242;27;20031;-67
2023/11/04 02:59:47;;;;;;;5.85;2.38;;;;;;;;;;5134942;27;20341;-67
2023/11/04 03:02:14;;;;;;;3.80;2.00;;;;;;;;;;5136313;27;20027;-67
2023/11/04 03:04:40;;;;;;;3.05;2.03;;;;;;;;;;5135018;27;20053;-67
2023/11/04 03:07:06;;;;;;;4.40;1.90;;;;;;;;;;5136199;27;20063;-67
2023/11/04 03:09:33;;;;;;;4.30;2.28;;;;;;;;;;5128411;27;20027;-67
2023/11/04 03:11:59;;;;;;;4.25;1.73;;;;;;;;;;5135459;27;20486;-67
2023/11/04 03:14:26;;;;;;;4.88;1.75;;;;;;;;;;5135700;27;20018;-67
2023/11/04 03:16:56;;;;;;;1.88;1.50;;;;;;;;;;5134564;27;20062;-67
2023/11/04 03:19:22;;;;;;;3.08;1.65;;;;;;;;;;5116857;27;20141;-67
2023/11/04 03:21:48;;;;;;;2.53;1.63;;;;;;;;;;5114722;28;20020;-67
2023/11/04 03:24:14;;;;;;;3.20;1.77;;;;;;;;;;5114857;28;20020;-67
2023/11/04 03:26:40;;;;;;;2.25;1.67;;;;;;;;;;5110295;28;20028;-67
2023/11/04 03:29:06;;;;;;;3.60;1.33;;;;;;;;;;5114179;28;20022;-67
2023/11/04 03:31:32;;;;;;;2.35;1.30;;;;;;;;;;5113966;28;20451;-67
2023/11/04 03:33:59;;;;;;;2.25;1.50;;;;;;;;;;5111171;28;20012;-67
2023/11/04 03:36:25;;;;;;;6.07;1.65;;;;;;;;;;5114060;28;20038;-67
2023/11/04 03:38:51;;;;;;;1.90;1.40;;;;;;;;;;5113777;28;20080;-67
2023/11/04 03:41:17;;;;;;;3.42;1.95;;;;;;;;;;5113920;28;20019;-67
2023/11/04 03:43:43;;;;;;;1.80;1.40;;;;;;;;;;5113703;28;20441;-67
2023/11/04 03:46:13;;;;;;;1.90;1.50;;;;;;;;;;5108535;27;20035;-67
2023/11/04 03:48:39;;;;;;;3.70;1.50;;;;;;;;;;5104061;28;20095;-67
2023/11/04 03:51:05;;;;;;;3.45;1.60;;;;;;;;;;5111574;28;20107;-67
2023/11/04 03:53:31;;;;;;;1.42;1.00;;;;;;;;;;5114264;28;20443;-67
2023/11/04 03:55:57;;;;;;;1.85;1.13;;;;;;;;;;5113942;28;20077;-67
2023/11/04 03:58:23;;;;;;;2.42;1.33;;;;;;;;;;5113888;28;20436;-67
2023/11/04 04:00:49;;;;;;;2.70;1.27;;;;;;;;;;5107152;28;20020;-67
2023/11/04 04:03:15;;;;;;;2.42;1.30;;;;;;;;;;5114323;28;20020;-66
2023/11/04 04:05:41;;;;;;;2.95;0.95;;;;;;;;;;5113971;28;20019;-67
2023/11/04 04:08:07;;;;;;;2.45;1.17;;;;;;;;;;5114021;28;20020;-67
2023/11/04 04:10:33;;;;;;;2.28;0.95;;;;;;;;;;5113949;28;20019;-67
2023/11/04 04:12:59;;;;;;;1.55;1.00;;;;;;;;;;5113545;28;20012;-67
2023/11/04 04:15:25;;;;;;;3.13;1.30;;;;;;;;;;5114420;28;20545;-67
2023/11/04 04:17:51;;;;;;;3.00;1.20;;;;;;;;;;5127217;27;20027;-67
2023/11/04 04:20:17;;;;;;;3.47;1.23;;;;;;;;;;5134865;27;20099;-67
2023/11/04 04:22:43;;;;;;;2.45;1.30;;;;;;;;;;5133253;27;20014;-67
2023/11/04 04:25:09;;;;;;;1.35;1.25;;;;;;;;;;5134823;27;20011;-67
2023/11/04 04:27:37;;;;;;;1.35;1.10;;;;;;;;;;5133916;27;20050;-67
2023/11/04 04:30:04;;;;;;;1.70;1.25;;;;;;;;;;5134432;27;20030;-66
2023/11/04 04:32:30;;;;;;;1.75;1.55;;;;;;;;;;5133995;27;20023;-66
2023/11/04 04:34:56;;;;;;;2.88;1.38;;;;;;;;;;5126205;27;20029;-66
2023/11/04 04:37:28;;;;;;;2.42;2.05;;;;;;;;;;5134298;27;20065;-67
2023/11/04 04:39:54;;;;;;;3.80;2.25;;;;;;;;;;5132422;27;20654;-67
2023/11/04 04:42:19;;;;;;;3.60;2.10;;;;;;;;;;5133945;27;20090;-66
2023/11/04 04:44:45;;;;;;;4.10;1.75;;;;;;;;;;5131920;27;20106;-67
2023/11/04 04:47:11;;;;;;;3.40;1.75;;;;;;;;;;5133696;27;20019;-67
2023/11/04 04:49:37;;;;;;;5.45;1.95;;;;;;;;;;5129425;27;20015;-68
2023/11/04 04:52:04;;;;;;;2.03;1.55;;;;;;;;;;5133566;27;20019;-67
2023/11/04 04:54:29;;;;;;;5.57;2.05;;;;;;;;;;5133413;27;20034;-67
2023/11/04 04:56:55;;;;;;;3.50;1.92;;;;;;;;;;5132702;27;20059;-67
2023/11/04 04:59:21;;;;;;;2.97;1.90;;;;;;;;;;5133026;27;20023;-67
2023/11/04 05:01:47;;;;;;;3.42;1.80;;;;;;;;;;5132662;27;20068;-66
2023/11/04 05:04:13;;;;;;;2.75;1.85;;;;;;;;;;5132979;27;20444;-67
2023/11/04 05:06:40;;;;;;;3.25;2.03;;;;;;;;;;5131059;27;20406;-66
2023/11/04 05:09:06;;;;;;;4.45;2.35;;;;;;;;;;5131555;27;20475;-67
2023/11/04 05:11:32;;;;;;;3.83;1.60;;;;;;;;;;5133320;27;20020;-68
2023/11/04 05:13:58;;;;;;;3.85;2.10;;;;;;;;;;5132270;27;20015;-68
2023/11/04 05:16:24;;;;;;;3.20;1.70;;;;;;;;;;5132606;27;20047;-68
2023/11/04 05:18:50;;;;;;;2.10;1.77;;;;;;;;;;5131704;27;20018;-68
2023/11/04 05:21:17;;;;;;;3.90;1.92;;;;;;;;;;5133323;27;20034;-68
2023/11/04 05:23:46;;;;;;;4.72;2.00;;;;;;;;;;5128208;27;20011;-67
2023/11/04 05:26:13;;;;;;;2.10;1.73;;;;;;;;;;5132938;27;20027;-68
2023/11/04 05:28:40;;;;;;;3.72;1.50;;;;;;;;;;5131972;27;20027;-68
2023/11/04 05:31:07;;;;;;;2.22;1.85;;;;;;;;;;5130380;27;20030;-68
2023/11/04 05:33:33;;;;;;;4.15;1.52;;;;;;;;;;5132607;27;20333;-68
2023/11/04 05:35:59;;;;;;;4.13;2.00;;;;;;;;;;5132984;27;20026;-67
2023/11/04 05:38:27;;;;;;;2.70;1.55;;;;;;;;;;5133151;27;20023;-66
2023/11/04 05:40:53;;;;;;;3.50;1.98;;;;;;;;;;5129768;27;20616;-65
2023/11/04 05:43:19;;;;;;;4.38;1.63;;;;;;;;;;5127689;27;20072;-66
2023/11/04 05:45:46;;;;;;;3.42;1.60;;;;;;;;;;5132030;27;20015;-65
2023/11/04 05:48:12;;;;;;;2.35;1.80;;;;;;;;;;5129326;27;20030;-68
2023/11/04 05:50:38;;;;;;;3.13;1.80;;;;;;;;;;5130543;27;20018;-66
2023/11/04 05:53:04;;;;;;;3.70;2.40;;;;;;;;;;5131660;27;20011;-68
2023/11/04 05:55:30;;;;;;;2.42;1.77;;;;;;;;;;5132503;27;20098;-68
2023/11/04 05:57:58;;;;;;;4.40;1.88;;;;;;;;;;5127928;27;20075;-68
2023/11/04 06:00:24;;;;;;;3.00;1.65;;;;;;;;;;5131954;27;20026;-67
2023/11/04 06:02:50;;;;;;;2.13;1.45;;;;;;;;;;5130930;27;20026;-68
2023/11/04 06:05:16;;;;;;;2.08;1.38;;;;;;;;;;5132014;27;20617;-68
2023/11/04 06:07:42;;;;;;;1.90;1.38;;;;;;;;;;5124212;27;20031;-68
2023/11/04 06:10:09;;;;;;;1.90;1.52;;;;;;;;;;5130544;27;20023;-67
2023/11/04 06:12:35;;;;;;;2.40;1.58;;;;;;;;;;5123198;27;20015;-68
2023/11/04 06:15:02;;;;;;;1.80;1.42;;;;;;;;;;5112180;27;20436;-68
2023/11/04 06:17:28;;;;;;;2.05;1.35;;;;;;;;;;5120222;27;20047;-68
2023/11/04 06:19:57;;;;;;;2.95;1.30;;;;;;;;;;5126560;27;20027;-68
2023/11/04 06:22:23;;;;;;;1.60;1.33;;;;;;;;;;5126521;27;20035;-67
2023/11/04 06:24:52;;;;;;;1.80;1.20;;;;;;;;;;5122469;28;20597;-67
2023/11/04 06:27:18;;;;;;;1.85;1.30;;;;;;;;;;5126846;28;20016;-67
2023/11/04 06:29:44;;;;;;;1.13;1.02;;;;;;;;;;5129016;28;20018;-74
2023/11/04 06:32:10;;;;;;;1.45;1.35;;;;;;;;;;5124417;28;20020;-73
2023/11/04 06:34:38;;;;;;;1.23;1.13;;;;;;;;;;5121974;28;20094;-75
2023/11/04 06:37:05;;;;;;;1.10;1.00;;;;;;;;;;5114457;28;20456;-73
2023/11/04 06:39:31;;;;;;;1.75;1.10;;;;;;;;;;5127371;28;20011;-69
2023/11/04 06:41:57;;;;;;;1.98;1.13;;;;;;;;;;5127017;27;20482;-70
2023/11/04 06:44:23;;;;;;;1.60;0.88;;;;;;;;;;5124158;28;20015;-68
2023/11/04 06:46:49;;;;;;;2.83;0.70;;;;;;;;;;5123809;28;20098;-69
2023/11/04 06:49:15;;;;;;;1.08;0.98;;;;;;;;;;5124712;28;20007;-70
2023/11/04 06:51:41;;;;;;;1.20;0.98;;;;;;;;;;5124447;28;20426;-70
2023/11/04 06:54:07;;;;;;;1.50;0.82;;;;;;;;;;5127177;28;20021;-69
2023/11/04 06:56:33;;;;;;;0.90;0.70;;;;;;;;;;5117370;28;20020;-70
2023/11/04 06:58:59;;;;;;;1.92;1.00;;;;;;;;;;5110443;28;20030;-69
2023/11/04 07:01:26;;;;;;;2.08;1.25;;;;;;;;;;5130425;28;20019;-66
2023/11/04 07:03:52;;;;;;;3.63;1.13;;;;;;;;;;5120016;27;20101;-67
2023/11/04 07:06:18;;;;;;;0.95;0.80;;;;;;;;;;5112793;28;20031;-67
2023/11/04 07:08:45;;;;;;;4.85;0.70;;;;;;;;;;5123328;28;20464;-66
2023/11/04 07:11:11;;;;;;;1.65;1.10;;;;;;;;;;5113096;27;20026;-67
2023/11/04 07:13:38;;;;;;;1.20;0.80;;;;;;;;;;5115486;27;20012;-69
2023/11/04 07:16:04;;;;;;;0.98;0.68;;;;;;;;;;5112388;27;20177;-69
2023/11/04 07:18:30;;;;;;;1.88;1.00;;;;;;;;;;5130175;27;20451;-67
2023/11/04 07:20:59;;;;;;;2.33;1.50;;;;;;;;;;5130138;27;20026;-67
2023/11/04 07:23:25;;;;;;;2.28;1.45;;;;;;;;;;5132483;27;20015;-67
2023/11/04 07:25:51;;;;;;;1.35;1.20;;;;;;;;;;5131916;27;20108;-65
2023/11/04 07:28:17;;;;;;;3.47;1.20;;;;;;;;;;5129084;27;20350;-67
2023/11/04 07:30:44;;;;;;;3.22;1.60;;;;;;;;;;5129963;27;20015;-66
2023/11/04 07:33:10;;;;;;;1.42;1.20;;;;;;;;;;5131741;27;20023;-68
2023/11/04 07:35:36;;;;;;;1.08;0.80;;;;;;;;;;5130933;27;20015;-66
2023/11/04 07:38:02;;;;;;;2.65;1.20;;;;;;;;;;5126028;27;20027;-65
2023/11/04 07:40:28;;;;;;;1.25;0.95;;;;;;;;;;5133736;27;20058;-66
2023/11/04 07:42:54;;;;;;;1.60;1.00;;;;;;;;;;5128836;27;20015;-65
2023/11/04 07:45:20;;;;;;;2.13;1.20;;;;;;;;;;5133142;27;20023;-67
2023/11/04 07:47:46;;;;;;;0.98;0.90;;;;;;;;;;5128216;27;20126;-66
2023/11/04 07:50:13;;;;;;;0.80;0.80;;;;;;;;;;5132282;27;20027;-66
2023/11/04 07:52:42;;;;;;;1.88;0.88;;;;;;;;;;5128384;27;20019;-67
2023/11/04 07:55:08;;;;;;;2.63;0.85;;;;;;;;;;5130470;27;20026;-66
2023/11/04 07:57:38;;;;;;;3.17;1.10;;;;;;;;;;5126315;27;20022;-69
2023/11/04 08:00:07;;;;;;;2.47;1.50;;;;;;;;;;5136093;27;20019;-66
2023/11/04 08:02:33;;;;;;;3.78;1.92;;;;;;;;;;5110777;27;20027;-67
2023/11/04 08:05:02;;;;;;;3.97;1.45;;;;;;;;;;5133238;27;20484;-64
2023/11/04 08:07:29;;;;;;;3.47;1.58;;;;;;;;;;5133935;27;20456;-65
2023/11/04 08:09:55;;;;;;;3.08;1.42;;;;;;;;;;5133372;27;20521;-72
2023/11/04 08:12:21;;;;;;;4.70;1.92;;;;;;;;;;5128104;27;20038;-69
2023/11/04 08:14:48;;;;;;;6.43;2.40;;;;;;;;;;5133525;27;20020;-69
2023/11/04 08:17:14;;;;;;;7.95;2.80;;;;;;;;;;5134070;27;20539;-68
2023/11/04 08:19:40;;;;;;;2.72;1.65;;;;;;;;;;5133588;27;20023;-66
2023/11/04 08:22:07;;;;;;;2.38;1.50;;;;;;;;;;5134264;27;20015;-68
2023/11/04 08:24:33;;;;;;;4.32;1.77;;;;;;;;;;5133189;27;20515;-71
2023/11/04 08:26:59;;;;;;;1.63;1.25;;;;;;;;;;5134037;27;20023;-67
2023/11/04 08:29:25;;;;;;;3.58;1.52;;;;;;;;;;5126595;27;20015;-65
2023/11/04 08:31:51;;;;;;;1.70;1.20;;;;;;;;;;5133179;27;20023;-64
2023/11/04 08:34:18;;;;;;;2.65;1.55;;;;;;;;;;5133727;27;20019;-81
2023/11/04 08:36:43;;;;;;;1.40;1.00;;;;;;;;;;5132927;27;20468;-71
2023/11/04 08:39:09;;;;;;;1.65;1.20;;;;;;;;;;5133596;27;20019;-75
2023/11/04 08:41:36;;;;;;;1.02;0.93;;;;;;;;;;5133489;27;20071;-68
2023/11/04 08:44:03;;;;;;;2.22;1.55;;;;;;;;;;5131633;27;20332;-71
2023/11/04 08:46:29;;;;;;;2.72;1.40;;;;;;;;;;5128970;27;20015;-80
2023/11/04 08:48:55;;;;;;;1.80;0.98;;;;;;;;;;5132619;27;20025;-63
2023/11/04 08:51:21;;;;;;;2.03;1.20;;;;;;;;;;5134413;27;20348;-65
2023/11/04 08:53:48;;;;;;;1.35;0.73;;;;;;;;;;5132750;27;20508;-76
2023/11/04 08:56:14;;;;;;;1.23;0.70;;;;;;;;;;5133639;27;20027;-65
2023/11/04 08:58:42;;;;;;;1.85;0.88;;;;;;;;;;5132821;27;20023;-65
2023/11/04 09:01:08;;;;;;;1.13;0.70;;;;;;;;;;5133886;27;20015;-65
2023/11/04 09:03:34;;;;;;;1.42;0.80;;;;;;;;;;5125770;27;20023;-65
2023/11/04 09:06:00;;;;;;;1.40;0.80;;;;;;;;;;5123393;27;20086;-65
2023/11/04 09:08:27;;;;;;;1.63;0.90;;;;;;;;;;5133022;27;20098;-64
2023/11/04 09:10:55;;;;;;;3.67;0.80;;;;;;;;;;5132634;27;20019;-68
2023/11/04 09:13:24;;;;;;;1.00;0.90;;;;;;;;;;5133082;27;20012;-67
2023/11/04 09:15:50;;;;;;;1.38;0.80;;;;;;;;;;5132036;27;20039;-67
2023/11/04 09:18:16;;;;;;;2.05;0.80;;;;;;;;;;5130859;27;20018;-64
2023/11/04 09:20:43;;;;;;;1.63;0.90;;;;;;;;;;5130609;27;20027;-65
2023/11/04 09:23:10;;;;;;;1.45;1.00;;;;;;;;;;5132459;27;20103;-65
2023/11/04 09:25:36;;;;;;;1.27;0.70;;;;;;;;;;5132702;27;20094;-66
2023/11/04 09:28:02;;;;;;;2.80;0.77;;;;;;;;;;5114422;27;20110;-64
2023/11/04 09:30:28;;;;;;;1.42;0.73;;;;;;;;;;5132978;27;20517;-64
2023/11/04 09:32:54;;;;;;;0.52;0.47;;;;;;;;;;5131839;27;20023;-64
2023/11/04 09:35:20;;;;;;;1.38;0.63;;;;;;;;;;5131739;27;20019;-63
2023/11/04 09:37:46;;;;;;;0.98;0.55;;;;;;;;;;5125839;27;20122;-65
2023/11/04 09:40:12;;;;;;;1.77;0.80;;;;;;;;;;5132114;27;20095;-65
2023/11/04 09:42:38;;;;;;;0.75;0.60;;;;;;;;;;5131693;27;20019;-65
2023/11/04 09:45:06;;;;;;;0.95;0.60;;;;;;;;;;5132730;27;20397;-66
2023/11/04 09:47:32;;;;;;;1.70;0.55;;;;;;;;;;5133006;27;20092;-66
2023/11/04 09:49:58;;;;;;;0.90;0.65;;;;;;;;;;5128705;27;20061;-64
2023/11/04 09:52:25;;;;;;;1.70;0.80;;;;;;;;;;5126918;27;20086;-64
2023/11/04 09:54:52;;;;;;;2.08;0.65;;;;;;;;;;5127988;27;20530;-65
2023/11/04 09:57:19;;;;;;;1.02;0.45;;;;;;;;;;5132685;27;20475;-65
2023/11/04 09:59:45;;;;;;;1.77;0.50;;;;;;;;;;5131338;27;20045;-65
2023/11/04 10:02:12;;;;;;;1.00;0.80;;;;;;;;;;5133188;27;20047;-65
2023/11/04 10:04:38;;;;;;;1.38;0.80;;;;;;;;;;5113174;28;20021;-65
2023/11/04 10:07:07;;;;;;;2.25;0.88;;;;;;;;;;5132914;27;20027;-65
2023/11/04 10:09:35;;;;;;;1.40;0.90;;;;;;;;;;5131438;27;20031;-66
2023/11/04 10:12:01;;;;;;;1.23;0.82;;;;;;;;;;5131211;27;20022;-66
2023/11/04 10:14:27;;;;;;;1.58;0.80;;;;;;;;;;5129970;27;20026;-65
2023/11/04 10:16:53;;;;;;;0.63;0.63;;;;;;;;;;5131619;27;20398;-65
2023/11/04 10:19:19;;;;;;;0.45;0.45;;;;;;;;;;5131859;27;20479;-65
2023/11/04 10:21:46;;;;;;;1.50;0.90;;;;;;;;;;5131929;27;20405;-65
2023/11/04 10:24:13;;;;;;;3.20;1.58;;;;;;;;;;5131628;27;20528;-65
2023/11/04 10:26:39;;;;;;;2.95;1.60;;;;;;;;;;5131807;28;20033;-65
2023/11/04 10:29:06;;;;;;;2.30;1.30;;;;;;;;;;5127623;28;20050;-65
2023/11/04 10:31:32;;;;;;;1.67;1.17;;;;;;;;;;5132422;28;20069;-65
2023/11/04 10:34:02;;;;;;;2.30;0.90;;;;;;;;;;5130618;28;20018;-65
2023/11/04 10:36:29;;;;;;;1.63;1.00;;;;;;;;;;5132661;28;20046;-65
2023/11/04 10:39:00;;;;;;;3.75;1.25;;;;;;;;;;5131234;28;20015;-65
2023/11/04 10:41:30;;;;;;;1.02;0.77;;;;;;;;;;5132566;28;20020;-65
2023/11/04 10:44:00;;;;;;;1.25;0.68;;;;;;;;;;5131349;28;20483;-65
2023/11/04 10:46:44;;;;;;;4.63;1.57;;;;;;;;;;5127315;27;20031;-65
2023/11/04 10:49:24;;;;;;;5.82;1.98;;;;;;;;;;5136335;27;20721;-65
2023/11/04 10:52:00;;;;;;;2.17;1.20;;;;;;;;;;5122744;27;20015;-65
2023/11/04 10:54:29;;;;;;;1.13;0.73;;;;;;;;;;5136219;27;20098;-65
2023/11/04 10:57:17;;;;;;;2.47;0.50;;;;;;;;;;5135382;27;20058;-65
2023/11/04 10:59:43;;;;;;;1.65;0.85;;;;;;;;;;5134984;27;20447;-65
2023/11/04 11:02:11;;;;;;;0.93;0.80;;;;;;;;;;5129605;27;20016;-65
2023/11/04 11:04:38;;;;;;;4.70;0.88;;;;;;;;;;5134714;27;20019;-65
2023/11/04 11:07:05;;;;;;;1.40;0.98;;;;;;;;;;5136359;27;20027;-65
2023/11/04 11:09:31;;;;;;;3.25;0.70;;;;;;;;;;5135785;27;20337;-65
2023/11/04 11:11:57;;;;;;;1.25;0.77;;;;;;;;;;5117075;27;20473;-65
2023/11/04 11:14:23;;;;;;;1.58;0.50;;;;;;;;;;5135820;27;20105;-65
2023/11/04 11:17:02;;;;;;;0.95;0.40;;;;;;;;;;5134260;27;20052;-65
2023/11/04 11:19:28;;;;;;;0.68;0.50;;;;;;;;;;5135370;27;20352;-65
2023/11/04 11:21:54;;;;;;;0.88;0.47;;;;;;;;;;5128374;27;20015;-65
2023/11/04 11:24:22;;;;;;;0.50;0.50;;;;;;;;;;5136767;27;20130;-64
2023/11/04 11:26:48;;;;;;;0.70;0.50;;;;;;;;;;5135430;27;20069;-65
2023/11/04 11:29:18;;;;;;;0.50;0.32;;;;;;;;;;5123604;27;20023;-64
2023/11/04 11:31:44;;;;;;;0.63;0.50;;;;;;;;;;5135411;27;20337;-65
2023/11/04 11:34:10;;;;;;;1.58;0.75;;;;;;;;;;5135687;27;20011;-65
2023/11/04 11:36:36;;;;;;;0.63;0.40;;;;;;;;;;5135131;27;20022;-66
2023/11/04 11:39:02;;;;;;;0.65;0.60;;;;;;;;;;5114191;27;20036;-64
2023/11/04 11:41:30;;;;;;;1.13;0.60;;;;;;;;;;5135989;27;20405;-65
2023/11/04 11:43:56;;;;;;;3.85;1.35;;;;;;;;;;5134441;27;20015;-65
2023/11/04 11:46:22;;;;;;;1.30;0.60;;;;;;;;;;5135268;27;20026;-65
2023/11/04 11:48:48;;;;;;;1.58;0.57;;;;;;;;;;5134218;27;20047;-65
2023/11/04 11:51:15;;;;;;;1.08;0.65;;;;;;;;;;5135171;27;20022;-65
2023/11/04 11:53:43;;;;;;;0.98;0.50;;;;;;;;;;5134130;27;20019;-65
2023/11/04 11:56:10;;;;;;;0.98;0.73;;;;;;;;;;5127858;27;20368;-65
2023/11/04 11:58:37;;;;;;;0.43;0.40;;;;;;;;;;5133471;27;20039;-67
2023/11/04 12:01:07;;;;;;;0.80;0.40;;;;;;;;;;5135173;27;20410;-65
2023/11/04 12:03:34;;;;;;;0.88;0.40;;;;;;;;;;5134539;27;20023;-65
2023/11/04 12:06:00;;;;;;;2.08;0.75;;;;;;;;;;5134536;27;20027;-65
2023/11/04 12:08:26;;;;;;;1.80;0.98;;;;;;;;;;5134747;27;20030;-65
2023/11/04 12:10:53;;;;;;;1.67;0.90;;;;;;;;;;5134282;27;20051;-65
2023/11/04 12:13:20;;;;;;;1.45;0.85;;;;;;;;;;5127316;27;20027;-65
2023/11/04 12:15:46;;;;;;;1.42;0.77;;;;;;;;;;5133497;27;20011;-65
2023/11/04 12:18:13;;;;;;;1.10;0.60;;;;;;;;;;5125785;27;20031;-65
2023/11/04 12:20:40;;;;;;;1.45;0.50;;;;;;;;;;5113308;28;20024;-65
2023/11/04 12:23:07;;;;;;;1.20;0.73;;;;;;;;;;5112984;28;20428;-65
2023/11/04 12:25:35;;;;;;;2.72;0.57;;;;;;;;;;5104505;27;20025;-65
2023/11/04 12:28:01;;;;;;;1.13;0.60;;;;;;;;;;5114338;27;20023;-65
2023/11/04 12:30:30;;;;;;;1.42;0.70;;;;;;;;;;5112269;28;20019;-65
2023/11/04 12:32:57;;;;;;;1.80;0.82;;;;;;;;;;5112064;27;20016;-65
2023/11/04 12:35:23;;;;;;;2.38;0.77;;;;;;;;;;5112059;27;20023;-65
2023/11/04 12:37:50;;;;;;;1.90;0.60;;;;;;;;;;5123066;27;20075;-65
2023/11/04 12:40:20;;;;;;;0.50;0.50;;;;;;;;;;5117039;27;20030;-65
2023/11/04 12:42:46;;;;;;;0.82;0.73;;;;;;;;;;5132879;27;20015;-65
2023/11/04 12:45:13;;;;;;;2.05;0.60;;;;;;;;;;5116240;27;20332;-65
2023/11/04 12:47:40;;;;;;;2.42;0.40;;;;;;;;;;5112546;28;20023;-66
2023/11/04 12:50:06;;;;;;;1.13;0.40;;;;;;;;;;5113403;28;20088;-65
2023/11/04 12:52:32;;;;;;;0.95;0.57;;;;;;;;;;5095410;28;20349;-65
2023/11/04 12:54:58;;;;;;;0.68;0.50;;;;;;;;;;5112183;28;20103;-65
2023/11/04 12:57:24;;;;;;;2.30;0.45;;;;;;;;;;5125251;27;20046;-65
2023/11/04 12:59:50;;;;;;;1.00;0.50;;;;;;;;;;5132582;27;20047;-65
2023/11/04 13:02:16;;;;;;;0.60;0.50;;;;;;;;;;5117103;27;20479;-65
2023/11/04 13:04:42;;;;;;;0.68;0.60;;;;;;;;;;5114713;27;20102;-65
2023/11/04 13:07:08;;;;;;;2.22;0.60;;;;;;;;;;5113339;28;20020;-65
2023/11/04 13:09:34;;;;;;;0.82;0.52;;;;;;;;;;5106667;28;20015;-66
2023/11/04 13:12:01;;;;;;;0.65;0.65;;;;;;;;;;5112672;28;20076;-65
2023/11/04 13:14:27;;;;;;;0.75;0.30;;;;;;;;;;5112685;28;20111;-65
2023/11/04 13:16:54;;;;;;;1.25;0.75;;;;;;;;;;5124416;27;20118;-65
2023/11/04 13:19:21;;;;;;;0.70;0.50;;;;;;;;;;5133375;27;20026;-65
2023/11/04 13:21:47;;;;;;;0.90;0.40;;;;;;;;;;5132546;27;20090;-65
2023/11/04 13:24:13;;;;;;;1.10;0.57;;;;;;;;;;5133205;27;20015;-65
2023/11/04 13:26:39;;;;;;;2.95;0.60;;;;;;;;;;5133130;27;20027;-65
2023/11/04 13:29:05;;;;;;;1.60;0.47;;;;;;;;;;5125383;27;20102;-65
2023/11/04 13:31:31;;;;;;;3.22;0.70;;;;;;;;;;5133380;27;20022;-65
2023/11/04 13:33:58;;;;;;;1.10;0.60;;;;;;;;;;5132396;27;20047;-65
2023/11/04 13:36:24;;;;;;;0.98;0.60;;;;;;;;;;5133133;27;20031;-65
2023/11/04 13:38:50;;;;;;;1.02;0.70;;;;;;;;;;5132148;27;20068;-65
2023/11/04 13:41:16;;;;;;;5.18;1.10;;;;;;;;;;5133486;27;20023;-65
2023/11/04 13:43:42;;;;;;;1.73;0.40;;;;;;;;;;5131793;27;20540;-65
2023/11/04 13:46:08;;;;;;;4.05;0.63;;;;;;;;;;5126387;27;20027;-65
2023/11/04 13:48:34;;;;;;;0.43;0.30;;;;;;;;;;5132019;27;20435;-65
2023/11/04 13:51:00;;;;;;;1.42;0.80;;;;;;;;;;5132743;27;20106;-64
2023/11/04 13:53:26;;;;;;;0.50;0.50;;;;;;;;;;5132736;27;20046;-65
2023/11/04 13:55:53;;;;;;;0.40;0.40;;;;;;;;;;5132287;27;20020;-65
2023/11/04 13:58:19;;;;;;;1.10;0.63;;;;;;;;;;5132324;27;20067;-64
2023/11/04 14:00:45;;;;;;;1.73;0.60;;;;;;;;;;5132084;27;20047;-65
2023/11/04 14:03:12;;;;;;;0.88;0.45;;;;;;;;;;5125569;27;20042;-64
2023/11/04 14:05:38;;;;;;;1.15;0.80;;;;;;;;;;5132177;27;20031;-65
2023/11/04 14:08:04;;;;;;;1.10;0.75;;;;;;;;;;5131888;27;20459;-64
2023/11/04 14:10:31;;;;;;;0.60;0.30;;;;;;;;;;5132657;27;20026;-64
2023/11/04 14:12:57;;;;;;;1.67;0.43;;;;;;;;;;5131383;27;20019;-64
2023/11/04 14:15:23;;;;;;;2.40;0.90;;;;;;;;;;5132881;27;20030;-64
2023/11/04 14:17:49;;;;;;;2.20;0.60;;;;;;;;;;5130439;27;20494;-64
2023/11/04 14:20:15;;;;;;;0.60;0.57;;;;;;;;;;5119032;27;20040;-65
2023/11/04 14:22:42;;;;;;;1.38;0.70;;;;;;;;;;5129792;27;20020;-65
2023/11/04 14:25:09;;;;;;;1.88;0.70;;;;;;;;;;5132658;27;20015;-64
2023/11/04 14:27:36;;;;;;;1.33;0.75;;;;;;;;;;5132109;28;20023;-65
2023/11/04 14:30:04;;;;;;;1.02;0.85;;;;;;;;;;5131899;28;20098;-64
2023/11/04 14:32:32;;;;;;;1.80;0.90;;;;;;;;;;5131917;28;20031;-64
2023/11/04 14:35:00;;;;;;;2.63;1.17;;;;;;;;;;5130789;28;20020;-64
2023/11/04 14:37:26;;;;;;;1.65;0.60;;;;;;;;;;5118622;28;20031;-64
2023/11/04 14:39:52;;;;;;;2.35;0.82;;;;;;;;;;5124037;28;20080;-64